Time;durP1;ratioP1;P1;durP2;ratioP2;P2;SDS_P1;SDS_P2;PMS_P1;PMS_P2;Temp;Humidity;BMP_temperature;BMP_pressure;BME280_temperature;BME280_humidity;BME280_pressure;Samples;Min_cycle;Max_cycle;Signal;HPM_P1;HPM_P2
2022/01/28 00:04:49;;;;;;;1.95;1.75;;;4.30;99.90;;;;;;4967030;28;20031;-71
2022/01/28 00:07:15;;;;;;;2.40;1.92;;;4.30;99.90;;;;;;4967036;28;20023;-70
2022/01/28 00:09:41;;;;;;;2.83;2.07;;;4.30;99.90;;;;;;4967196;28;20133;-71
2022/01/28 00:12:08;;;;;;;2.90;1.67;;;4.40;99.90;;;;;;4961223;28;20722;-71
2022/01/28 00:39:29;;;;;;;2.90;1.73;;;4.60;99.90;;;;;;4964848;28;20166;-71
2022/01/28 00:41:55;;;;;;;4.13;2.27;;;4.60;99.90;;;;;;4968243;28;20170;-71
2022/01/28 00:44:21;;;;;;;2.30;1.73;;;4.60;99.90;;;;;;4961123;28;20172;-71
2022/01/28 00:46:46;;;;;;;2.77;2.07;;;4.70;99.90;;;;;;4966685;28;20054;-70
2022/01/28 00:49:12;;;;;;;2.00;1.63;;;4.70;99.90;;;;;;4966553;28;20553;-70
2022/01/28 00:51:38;;;;;;;2.53;1.90;;;4.80;99.90;;;;;;4963992;28;20779;-71
2022/01/28 00:54:03;;;;;;;2.83;1.87;;;4.80;99.90;;;;;;4969912;28;20027;-72
2022/01/28 00:56:29;;;;;;;1.97;1.47;;;4.70;99.90;;;;;;4969114;28;20486;-71
2022/01/28 00:58:55;;;;;;;2.30;2.10;;;4.70;99.90;;;;;;4968200;28;20030;-71
2022/01/28 01:01:20;;;;;;;2.80;1.73;;;4.70;99.90;;;;;;4962516;28;20014;-70
2022/01/28 01:03:47;;;;;;;2.43;2.20;;;4.60;99.90;;;;;;4967400;28;20063;-71
2022/01/28 01:06:13;;;;;;;2.28;1.77;;;4.60;99.90;;;;;;4967094;28;20026;-71
2022/01/28 01:08:38;;;;;;;1.63;1.40;;;4.60;99.90;;;;;;4967896;28;20611;-71
2022/01/28 01:11:06;;;;;;;3.27;2.10;;;4.60;99.90;;;;;;4970127;28;20353;-71
2022/01/28 01:13:37;;;;;;;2.80;2.03;;;4.50;99.90;;;;;;4962574;28;20464;-70
2022/01/28 01:16:03;;;;;;;2.38;1.88;;;4.50;99.90;;;;;;4967077;28;20014;-71
2022/01/28 01:18:40;;;;;;;2.85;1.83;;;4.40;99.90;;;;;;4961602;28;20027;-71
2022/01/28 01:21:10;;;;;;;3.17;2.00;;;4.40;99.90;;;;;;4962562;28;20026;-71
2022/01/28 01:23:39;;;;;;;2.88;2.17;;;4.40;99.90;;;;;;4964154;28;20022;-70
2022/01/28 01:26:09;;;;;;;2.85;1.73;;;4.40;99.90;;;;;;4967521;28;20472;-71
2022/01/28 01:28:39;;;;;;;2.22;1.58;;;4.40;99.90;;;;;;4959966;28;20082;-70
2022/01/28 01:31:07;;;;;;;2.97;1.75;;;4.40;99.90;;;;;;4965584;28;20490;-72
2022/01/28 01:33:46;;;;;;;1.80;1.52;;;4.40;99.90;;;;;;4963781;28;20360;-71
2022/01/28 01:36:11;;;;;;;1.83;1.65;;;4.50;99.90;;;;;;4968035;28;20026;-71
2022/01/28 01:38:39;;;;;;;2.10;1.80;;;4.50;99.90;;;;;;4966101;28;20033;-70
2022/01/28 01:41:13;;;;;;;2.25;1.45;;;4.50;99.90;;;;;;4968153;28;20161;-71
2022/01/28 01:46:41;;;;;;;2.70;1.75;;;4.50;99.90;;;;;;4963491;28;20044;-71
2022/01/28 01:52:05;;;;;;;3.00;2.03;;;4.50;99.90;;;;;;4965081;28;20483;-70
2022/01/28 01:54:35;;;;;;;3.28;2.15;;;4.40;99.90;;;;;;4960309;28;20112;-71
2022/01/28 01:57:02;;;;;;;2.53;1.92;;;4.40;99.90;;;;;;4966848;28;20464;-70
2022/01/28 01:59:28;;;;;;;2.33;1.88;;;4.40;99.90;;;;;;4961599;28;20042;-70
2022/01/28 02:01:53;;;;;;;3.03;2.30;;;4.30;99.90;;;;;;4966987;28;20030;-71
2022/01/28 02:04:19;;;;;;;4.20;2.50;;;4.30;99.90;;;;;;4963495;28;20047;-71
2022/01/28 02:06:46;;;;;;;3.27;2.40;;;4.30;99.90;;;;;;4959335;28;20015;-72
2022/01/28 02:09:13;;;;;;;3.13;2.10;;;4.30;99.90;;;;;;4966834;28;20109;-70
2022/01/28 02:11:42;;;;;;;2.55;2.20;;;4.30;99.90;;;;;;4960425;28;20031;-72
2022/01/28 02:14:08;;;;;;;2.45;1.65;;;4.20;99.90;;;;;;4965351;28;20030;-71
2022/01/28 02:16:35;;;;;;;3.47;2.10;;;4.20;99.90;;;;;;4963755;28;20496;-70
2022/01/28 02:19:02;;;;;;;2.80;2.00;;;4.10;99.90;;;;;;4966013;28;20030;-70
2022/01/28 02:21:44;;;;;;;2.40;1.92;;;4.10;99.90;;;;;;4960852;28;20037;-70
2022/01/28 02:24:11;;;;;;;2.58;2.13;;;4.10;99.90;;;;;;4966243;28;20030;-70
2022/01/28 02:26:38;;;;;;;;;;;4.10;99.90;;;;;;4962641;28;20205;-71
2022/01/28 02:29:14;;;;;;;2.95;2.08;;;4.10;99.90;;;;;;4966644;28;19910;-70
2022/01/28 02:31:43;;;;;;;1.88;1.67;;;4.10;99.90;;;;;;4962682;28;20026;-70
2022/01/28 02:34:11;;;;;;;2.15;1.90;;;4.10;99.90;;;;;;4967183;28;20033;-70
2022/01/28 02:36:38;;;;;;;1.95;1.70;;;4.10;99.90;;;;;;4965270;28;20694;-71
2022/01/28 02:39:05;;;;;;;2.42;1.90;;;4.00;99.90;;;;;;4971286;28;20038;-70
2022/01/28 02:41:36;;;;;;;2.45;1.80;;;4.10;99.90;;;;;;4962056;28;20518;-70
2022/01/28 02:46:53;;;;;;;1.75;1.55;;;4.10;99.90;;;;;;4963300;28;20706;-72
2022/01/28 02:49:19;;;;;;;2.38;1.80;;;4.10;99.90;;;;;;4965692;28;20117;-72
2022/01/28 02:51:45;;;;;;;2.38;1.55;;;4.10;99.90;;;;;;4963250;28;20146;-72
2022/01/28 02:54:14;;;;;;;2.23;2.00;;;4.10;99.90;;;;;;4969665;28;20098;-71
2022/01/28 02:56:49;;;;;;;2.17;1.92;;;4.20;99.90;;;;;;4967227;28;20109;-74
2022/01/28 02:59:14;;;;;;;3.05;2.00;;;4.20;99.90;;;;;;4962496;28;20031;-71
2022/01/28 03:01:40;;;;;;;2.80;2.10;;;4.20;99.90;;;;;;4962813;28;20022;-72
2022/01/28 03:04:08;;;;;;;2.45;1.98;;;4.20;99.90;;;;;;4967718;28;20054;-71
2022/01/28 03:06:34;;;;;;;2.95;2.10;;;4.20;99.90;;;;;;4962661;28;20475;-71
2022/01/28 03:09:08;;;;;;;2.43;1.90;;;4.20;99.90;;;;;;4969945;28;20037;-70
2022/01/28 03:16:53;;;;;;;2.67;2.08;;;4.20;99.90;;;;;;4963171;28;20164;-71
2022/01/28 03:19:23;;;;;;;2.22;1.90;;;4.20;99.90;;;;;;4964962;28;20156;-70
2022/01/28 03:21:55;;;;;;;2.50;2.00;;;4.20;99.90;;;;;;4964738;28;20031;-70
2022/01/28 03:24:26;;;;;;;2.72;1.85;;;4.20;99.90;;;;;;4963180;28;20022;-71
2022/01/28 03:27:02;;;;;;;2.22;1.95;;;4.20;99.90;;;;;;4965075;28;20046;-71
2022/01/28 03:29:28;;;;;;;2.53;1.87;;;4.10;99.90;;;;;;4958846;28;20994;-72
2022/01/28 03:31:54;;;;;;;2.63;2.43;;;4.10;99.90;;;;;;4971775;28;20022;-71
2022/01/28 03:34:20;;;;;;;2.90;1.90;;;4.00;99.90;;;;;;4971060;28;20539;-71
2022/01/28 03:36:46;;;;;;;2.83;2.03;;;4.00;99.90;;;;;;4961171;28;20728;-71
2022/01/28 03:39:12;;;;;;;2.87;2.20;;;4.10;99.90;;;;;;4969202;28;20030;-70
2022/01/28 03:41:38;;;;;;;;;;;4.00;99.90;;;;;;4963022;28;20506;-71
2022/01/28 03:44:06;;;;;;;2.88;1.88;;;4.10;99.90;;;;;;4967448;28;20033;-70
2022/01/28 03:46:32;;;;;;;2.55;1.90;;;4.10;99.90;;;;;;4965473;28;20103;-71
2022/01/28 03:48:58;;;;;;;2.38;1.80;;;4.10;99.90;;;;;;4970053;28;20823;-71
2022/01/28 03:51:25;;;;;;;2.88;2.15;;;4.10;99.90;;;;;;4962603;28;20113;-70
2022/01/28 03:53:51;;;;;;;;;;;4.10;99.90;;;;;;4967006;28;20050;-71
2022/01/28 03:56:18;;;;;;;2.30;1.73;;;4.20;99.90;;;;;;4963526;28;20773;-71
2022/01/28 03:58:44;;;;;;;2.35;2.15;;;4.20;99.90;;;;;;4963362;28;20425;-70
2022/01/28 04:01:16;;;;;;;2.20;1.93;;;4.30;99.90;;;;;;4963309;28;20023;-71
2022/01/28 04:11:59;;;;;;;2.15;1.60;;;4.30;99.90;;;;;;4969029;28;20903;-71
2022/01/28 04:19:34;;;;;;;2.30;1.95;;;4.30;99.90;;;;;;4964191;28;20656;-72
2022/01/28 04:21:59;;;;;;;2.13;1.70;;;4.30;99.90;;;;;;4970169;28;20050;-70
2022/01/28 04:24:25;;;;;;;2.50;1.80;;;4.30;99.90;;;;;;4963967;28;20109;-71
2022/01/28 04:26:52;;;;;;;2.53;2.27;;;4.20;99.90;;;;;;4965587;28;20019;-70
2022/01/28 04:29:18;;;;;;;3.63;2.10;;;4.30;99.90;;;;;;4966727;28;20030;-70
2022/01/28 04:31:48;;;;;;;2.58;1.90;;;4.20;99.90;;;;;;4961002;28;20038;-70
2022/01/28 04:34:15;;;;;;;2.75;1.92;;;4.20;99.90;;;;;;4968255;28;20032;-71
2022/01/28 04:37:02;;;;;;;2.67;1.85;;;4.20;99.90;;;;;;4961460;28;20054;-70
2022/01/28 04:39:46;;;;;;;3.03;1.90;;;4.30;99.90;;;;;;4960548;28;20022;-71
2022/01/28 04:53:01;;;;;;;2.75;1.83;;;4.40;99.90;;;;;;4967467;28;20030;-71
2022/01/28 05:07:12;;;;;;;3.30;2.35;;;4.60;99.90;;;;;;4968436;28;20049;-72
2022/01/28 05:14:55;;;;;;;3.05;2.33;;;4.60;99.90;;;;;;4966228;28;20038;-70
2022/01/28 05:27:50;;;;;;;4.03;2.83;;;4.30;99.90;;;;;;4967806;28;20042;-70
2022/01/28 05:30:12;;;;;;;3.78;2.58;;;4.20;99.90;;;;;;4961280;28;20058;-70
2022/01/28 05:32:38;;;;;;;4.20;2.67;;;4.20;99.90;;;;;;4968442;28;20105;-69
2022/01/28 05:35:04;;;;;;;4.67;2.53;;;4.30;99.90;;;;;;4962006;28;20137;-69
2022/01/28 05:37:30;;;;;;;2.95;2.22;;;4.30;99.90;;;;;;4970187;28;20101;-69
2022/01/28 05:39:56;;;;;;;3.93;2.83;;;4.30;99.90;;;;;;4967613;28;20138;-72
2022/01/28 05:42:21;;;;;;;5.47;2.97;;;4.30;99.90;;;;;;4965793;28;20027;-71
2022/01/28 05:44:47;;;;;;;3.63;2.73;;;4.30;99.90;;;;;;4967926;28;20062;-72
2022/01/28 05:47:15;;;;;;;3.40;2.27;;;4.30;99.90;;;;;;4961159;28;20669;-69
2022/01/28 05:49:42;;;;;;;2.63;2.30;;;4.30;99.90;;;;;;4966857;28;20345;-72
2022/01/28 05:52:08;;;;;;;2.88;2.25;;;4.30;99.90;;;;;;4984247;28;20030;-73
2022/01/28 05:54:34;;;;;;;3.35;2.20;;;4.40;99.90;;;;;;4960614;28;20533;-69
2022/01/28 05:56:59;;;;;;;3.67;2.47;;;4.40;99.90;;;;;;4962311;28;20685;-69
2022/01/28 05:59:25;;;;;;;4.07;2.50;;;4.40;99.90;;;;;;4966973;28;20560;-69
2022/01/28 06:01:51;;;;;;;3.30;2.43;;;4.40;99.90;;;;;;4960936;28;20030;-70
2022/01/28 06:04:17;;;;;;;3.87;2.43;;;4.40;99.90;;;;;;4959110;28;20368;-70
2022/01/28 06:06:43;;;;;;;3.80;2.50;;;4.40;99.90;;;;;;4971514;28;20046;-69
2022/01/28 06:09:10;;;;;;;2.47;1.83;;;4.30;99.90;;;;;;4960944;28;20050;-70
2022/01/28 06:11:37;;;;;;;2.27;1.57;;;4.30;99.90;;;;;;4965197;28;20027;-69
2022/01/28 06:14:04;;;;;;;3.53;1.70;;;4.20;99.90;;;;;;4962174;28;20031;-69
2022/01/28 06:16:30;;;;;;;2.83;1.70;;;4.20;99.90;;;;;;4963277;28;20030;-69
2022/01/28 06:18:57;;;;;;;2.57;1.90;;;4.20;99.90;;;;;;4964578;28;20034;-70
2022/01/28 06:21:23;;;;;;;2.42;2.08;;;4.10;99.90;;;;;;4968653;28;20476;-69
2022/01/28 06:23:51;;;;;;;2.28;1.52;;;4.10;99.90;;;;;;4959113;28;20499;-71
2022/01/28 06:26:17;;;;;;;2.33;1.85;;;4.10;99.90;;;;;;4961536;28;20025;-73
2022/01/28 06:28:43;;;;;;;2.27;2.03;;;4.10;99.90;;;;;;4967277;28;20022;-71
2022/01/28 06:31:10;;;;;;;2.57;2.00;;;4.10;99.90;;;;;;4962163;28;20027;-72
2022/01/28 06:33:36;;;;;;;;;;;4.10;99.90;;;;;;4968614;28;20265;-72
2022/01/28 06:36:03;;;;;;;4.38;2.40;;;4.10;99.90;;;;;;4963654;28;19969;-70
2022/01/28 06:38:29;;;;;;;4.18;2.35;;;4.10;99.90;;;;;;4967230;28;20031;-70
2022/01/28 06:40:55;;;;;;;4.25;2.78;;;4.00;99.90;;;;;;4967402;28;20081;-72
2022/01/28 06:43:21;;;;;;;4.28;2.22;;;4.00;99.90;;;;;;4966540;28;20499;-73
2022/01/28 06:45:48;;;;;;;2.87;2.10;;;4.00;99.90;;;;;;4969918;28;20022;-72
2022/01/28 06:48:16;;;;;;;;;;;3.90;99.90;;;;;;4964269;28;20031;-70
2022/01/28 06:50:42;;;;;;;2.25;1.70;;;3.90;99.90;;;;;;4967280;28;19906;-73
2022/01/28 06:53:09;;;;;;;4.25;2.15;;;4.00;99.90;;;;;;4962720;28;20035;-79
2022/01/28 06:55:35;;;;;;;3.72;1.50;;;4.50;99.90;;;;;;4968207;28;20022;-75
2022/01/28 06:58:02;;;;;;;2.15;1.10;;;5.20;99.90;;;;;;4962667;28;20077;-79
2022/01/28 07:00:30;;;;;;;1.70;0.75;;;5.80;99.90;;;;;;4964467;28;20460;-79
2022/01/28 07:02:56;;;;;;;1.95;0.88;;;6.40;99.90;;;;;;4973970;28;20034;-73
2022/01/28 07:05:21;;;;;;;1.33;1.07;;;6.90;98.90;;;;;;4961856;28;20022;-76
2022/01/28 07:07:47;;;;;;;1.33;0.90;;;7.40;97.60;;;;;;4972155;28;20030;-74
2022/01/28 07:10:13;;;;;;;1.10;1.00;;;8.00;96.40;;;;;;4968046;28;20011;-71
2022/01/28 07:12:39;;;;;;;0.98;0.88;;;8.70;94.70;;;;;;4967402;28;20073;-71
2022/01/28 07:15:05;;;;;;;1.23;1.13;;;9.10;92.90;;;;;;4969916;28;20468;-70
2022/01/28 07:17:31;;;;;;;1.60;1.40;;;9.40;91.90;;;;;;4966708;28;20062;-72
2022/01/28 07:19:56;;;;;;;2.03;1.30;;;9.60;91.40;;;;;;4967549;28;20118;-71
2022/01/28 07:22:22;;;;;;;2.03;1.30;;;10.00;90.60;;;;;;4966021;28;20026;-71
2022/01/28 07:24:47;;;;;;;3.37;1.73;;;10.40;88.50;;;;;;4967224;28;20023;-72
2022/01/28 07:27:19;;;;;;;1.87;1.40;;;10.90;86.80;;;;;;4960644;28;20100;-72
2022/01/28 07:29:50;;;;;;;1.63;1.20;;;11.30;81.80;;;;;;4965516;28;20042;-71
2022/01/28 07:32:16;;;;;;;2.42;1.20;;;11.50;78.80;;;;;;4963370;28;20025;-72
2022/01/28 07:34:41;;;;;;;3.90;1.15;;;12.00;75.90;;;;;;4966204;28;20610;-71
2022/01/28 07:37:07;;;;;;;1.13;1.00;;;12.50;71.00;;;;;;4960513;28;20054;-72
2022/01/28 07:39:33;;;;;;;1.57;0.90;;;13.00;66.10;;;;;;4968237;28;20477;-72
2022/01/28 07:41:58;;;;;;;1.17;0.83;;;13.00;63.90;;;;;;4967835;28;20436;-72
2022/01/28 07:44:24;;;;;;;1.20;1.00;;;13.30;61.50;;;;;;4964977;28;20465;-72
2022/01/28 07:46:50;;;;;;;0.73;0.70;;;13.50;59.10;;;;;;4965281;28;20249;-72
2022/01/28 07:49:15;;;;;;;2.13;0.80;;;13.30;57.30;;;;;;4960579;28;20507;-72
2022/01/28 07:51:42;;;;;;;0.80;0.80;;;12.90;59.60;;;;;;4964755;28;20492;-71
2022/01/28 07:54:08;;;;;;;0.57;0.57;;;12.70;60.20;;;;;;4964150;28;20030;-72
2022/01/28 07:56:34;;;;;;;0.85;0.47;;;12.60;58.40;;;;;;4963377;28;20034;-71
2022/01/28 07:59:00;;;;;;;0.70;0.70;;;12.70;58.40;;;;;;4963503;28;20022;-71
2022/01/28 08:01:26;;;;;;;0.80;0.60;;;13.00;56.70;;;;;;4960015;28;20034;-71
2022/01/28 08:03:52;;;;;;;0.60;0.47;;;13.10;55.00;;;;;;4964726;28;20072;-71
2022/01/28 08:06:17;;;;;;;0.57;0.57;;;13.10;55.00;;;;;;4958139;28;20030;-71
2022/01/28 08:08:43;;;;;;;2.43;0.60;;;13.40;53.20;;;;;;4970043;28;20389;-71
2022/01/28 08:11:12;;;;;;;0.80;0.53;;;12.80;52.90;;;;;;4967608;28;20131;-76
2022/01/28 08:13:37;;;;;;;1.25;0.70;;;11.70;56.00;;;;;;4968997;28;20030;-73
2022/01/28 08:16:03;;;;;;;0.60;0.60;;;10.30;63.50;;;;;;4963066;28;20584;-73
2022/01/28 08:18:29;;;;;;;1.48;0.65;;;9.50;67.60;;;;;;4971554;28;20091;-71
2022/01/28 08:20:55;;;;;;;0.73;0.60;;;8.80;72.20;;;;;;4965902;28;20761;-74
2022/01/28 08:23:21;;;;;;;1.93;0.50;;;8.40;76.30;;;;;;4965147;28;20085;-75
2022/01/28 08:25:51;;;;;;;1.92;0.70;;;7.90;79.10;;;;;;4960027;28;20019;-74
2022/01/28 08:28:16;;;;;;;1.17;0.68;;;7.60;80.70;;;;;;4961836;28;20027;-75
2022/01/28 08:30:42;;;;;;;1.97;0.60;;;7.30;82.20;;;;;;4962817;28;20025;-75
2022/01/28 08:33:08;;;;;;;1.77;0.77;;;7.10;82.50;;;;;;4962741;28;20025;-75
2022/01/28 08:35:37;;;;;;;1.70;0.43;;;7.00;84.50;;;;;;4970884;28;20026;-79
2022/01/28 08:38:12;;;;;;;1.30;0.70;;;6.90;84.50;;;;;;4961269;28;20023;-74
2022/01/28 08:40:39;;;;;;;2.10;0.38;;;6.80;86.60;;;;;;4962265;28;20014;-75
2022/01/28 08:43:04;;;;;;;;;;;6.80;88.60;;;;;;4962446;28;20034;-70
2022/01/28 08:45:30;;;;;;;1.02;0.52;;;6.70;90.00;;;;;;4968771;28;19910;-74
2022/01/28 08:47:56;;;;;;;1.77;1.00;;;6.70;91.30;;;;;;4965144;28;20023;-79
2022/01/28 08:50:22;;;;;;;0.80;0.70;;;6.70;91.30;;;;;;4960610;28;20113;-77
2022/01/28 08:52:48;;;;;;;1.53;0.80;;;6.60;91.70;;;;;;4964135;28;20098;-75
2022/01/28 08:55:15;;;;;;;3.92;0.98;;;6.60;92.30;;;;;;4960372;28;20034;-78
2022/01/28 08:57:44;;;;;;;1.95;0.80;;;6.50;91.80;;;;;;4966846;28;20616;-75
2022/01/28 09:00:17;;;;;;;0.98;0.90;;;6.50;92.50;;;;;;4961996;28;20123;-76
2022/01/28 09:02:44;;;;;;;1.38;0.80;;;6.50;92.30;;;;;;4959000;28;20483;-77
2022/01/28 09:05:11;;;;;;;0.82;0.80;;;6.50;91.60;;;;;;4967378;28;20023;-73
2022/01/28 09:07:36;;;;;;;1.42;1.02;;;6.50;92.20;;;;;;4966352;28;20157;-75
2022/01/28 09:10:09;;;;;;;1.10;0.87;;;6.50;92.40;;;;;;4969506;28;20022;-76
2022/01/28 09:12:39;;;;;;;2.03;1.00;;;6.40;93.70;;;;;;4962329;28;20092;-75
2022/01/28 09:15:07;;;;;;;2.90;1.05;;;6.30;94.90;;;;;;4965072;28;20018;-76
2022/01/28 09:17:33;;;;;;;1.63;1.30;;;6.20;94.80;;;;;;4964504;28;20030;-75
2022/01/28 09:19:58;;;;;;;1.83;1.17;;;6.20;95.60;;;;;;4955748;28;20022;-74
2022/01/28 09:22:25;;;;;;;2.30;1.20;;;6.20;96.50;;;;;;4967534;28;20026;-79
2022/01/28 09:24:51;;;;;;;2.33;1.70;;;6.10;96.70;;;;;;4985917;28;20118;-79
2022/01/28 09:27:18;;;;;;;1.73;1.25;;;6.20;97.20;;;;;;4963608;28;20138;-78
2022/01/28 09:29:44;;;;;;;3.10;1.50;;;6.30;96.90;;;;;;4964827;28;20026;-77
2022/01/28 09:32:10;;;;;;;1.33;1.00;;;6.50;95.00;;;;;;4965750;28;20617;-78
2022/01/28 09:34:36;;;;;;;1.10;0.70;;;6.50;93.30;;;;;;4965922;28;20026;-73
2022/01/28 09:37:02;;;;;;;0.60;0.60;;;6.90;87.60;;;;;;4963411;28;20515;-80
2022/01/28 09:39:30;;;;;;;0.75;0.40;;;7.50;84.80;;;;;;4967855;28;20035;-70
2022/01/28 09:42:02;;;;;;;0.80;0.65;;;8.90;72.20;;;;;;4960605;28;20011;-71
2022/01/28 09:44:30;;;;;;;0.52;0.40;;;10.40;62.50;;;;;;4968057;28;20025;-71
2022/01/28 09:46:58;;;;;;;2.28;0.52;;;11.30;56.10;;;;;;4960530;28;20030;-71
2022/01/28 09:49:24;;;;;;;0.85;0.32;;;12.30;52.90;;;;;;4963610;28;20018;-70
2022/01/28 09:51:50;;;;;;;0.43;0.38;;;13.00;48.10;;;;;;4963940;28;20019;-71
2022/01/28 09:54:16;;;;;;;1.48;0.30;;;13.80;47.30;;;;;;4964662;28;20034;-71
2022/01/28 09:56:41;;;;;;;1.33;0.40;;;14.40;45.10;;;;;;4957664;28;20041;-71
2022/01/28 09:59:07;;;;;;;1.60;0.53;;;14.50;44.70;;;;;;4963849;28;20022;-71
2022/01/28 10:01:32;;;;;;;2.03;0.53;;;14.00;44.80;;;;;;4961670;28;20344;-71
2022/01/28 10:04:05;;;;;;;1.13;0.70;;;13.20;46.40;;;;;;4962841;28;20094;-70
2022/01/28 10:06:35;;;;;;;1.00;0.60;;;12.20;47.20;;;;;;4966737;28;20189;-71
2022/01/28 10:09:12;;;;;;;0.52;0.47;;;11.30;49.60;;;;;;4966675;28;20067;-75
2022/01/28 10:11:39;;;;;;;1.17;0.40;;;10.80;51.50;;;;;;4966817;28;20023;-70
2022/01/28 10:14:16;;;;;;;2.70;0.57;;;10.90;52.80;;;;;;4970823;28;20031;-70
2022/01/28 10:16:42;;;;;;;1.10;0.30;;;11.30;52.10;;;;;;4961748;28;20015;-71
2022/01/28 10:19:10;;;;;;;0.77;0.40;;;11.00;53.20;;;;;;4968746;28;20030;-72
2022/01/28 10:21:44;;;;;;;2.35;0.60;;;11.10;55.70;;;;;;4969843;28;20105;-67
2022/01/28 10:24:21;;;;;;;1.55;0.60;;;12.00;54.50;;;;;;4964869;28;20102;-68
2022/01/28 10:26:54;;;;;;;0.73;0.22;;;12.60;54.60;;;;;;4967019;28;20093;-69
2022/01/28 10:29:26;;;;;;;1.77;0.70;;;12.90;53.00;;;;;;4967669;28;20037;-68
2022/01/28 10:31:57;;;;;;;0.85;0.38;;;12.90;52.10;;;;;;4967891;28;20026;-70
2022/01/28 10:34:35;;;;;;;0.55;0.40;;;12.20;52.60;;;;;;4967363;28;20014;-70
2022/01/28 10:37:11;;;;;;;2.70;0.50;;;11.00;55.40;;;;;;4960350;28;20591;-71
2022/01/28 10:40:07;;;;;;;0.85;0.40;;;10.30;60.00;;;;;;4964745;28;20094;-70
2022/01/28 10:42:50;;;;;;;0.80;0.52;;;9.80;65.00;;;;;;4962378;28;20054;-72
2022/01/28 10:45:28;;;;;;;1.95;0.45;;;9.30;67.30;;;;;;4968355;28;20090;-77
2022/01/28 10:47:55;;;;;;;1.38;0.30;;;8.70;69.50;;;;;;4967040;28;20018;-73
2022/01/28 10:50:31;;;;;;;0.85;0.43;;;8.30;73.30;;;;;;4963641;28;20023;-78
2022/01/28 10:53:12;;;;;;;1.27;0.45;;;7.90;74.20;;;;;;4960367;28;20027;-76
2022/01/28 10:55:52;;;;;;;1.05;0.73;;;7.70;75.10;;;;;;4967314;28;20072;-74
2022/01/28 10:58:24;;;;;;;0.75;0.60;;;7.50;75.90;;;;;;4967667;28;20090;-75
2022/01/28 11:00:53;;;;;;;0.70;0.40;;;7.40;78.80;;;;;;4964590;28;20031;-76
2022/01/28 11:03:26;;;;;;;2.22;0.95;;;7.30;83.40;;;;;;4960841;28;20030;-71
2022/01/28 11:05:56;;;;;;;3.40;0.43;;;7.10;87.60;;;;;;4970493;28;20025;-71
2022/01/28 11:08:29;;;;;;;0.43;0.40;;;6.90;88.50;;;;;;4963511;28;20468;-72
2022/01/28 11:10:55;;;;;;;1.52;0.38;;;7.00;88.70;;;;;;4965774;28;20395;-71
2022/01/28 11:13:22;;;;;;;1.00;0.50;;;7.40;85.70;;;;;;4965844;28;20038;-73
2022/01/28 11:15:47;;;;;;;2.55;0.63;;;8.00;82.40;;;;;;4970088;28;20117;-73
2022/01/28 11:18:14;;;;;;;2.10;0.50;;;8.40;77.40;;;;;;4960601;28;20027;-71
2022/01/28 11:20:45;;;;;;;;;;;8.60;73.80;;;;;;4967134;28;20473;-71
2022/01/28 11:23:33;;;;;;;0.90;0.52;;;8.70;74.00;;;;;;4986424;28;20409;-72
2022/01/28 11:26:24;;;;;;;2.35;0.40;;;8.80;68.80;;;;;;4965697;28;20065;-74
2022/01/28 11:28:51;;;;;;;1.25;0.32;;;8.80;68.10;;;;;;4971428;28;20393;-73
2022/01/28 11:31:50;;;;;;;2.70;0.65;;;9.00;65.70;;;;;;4966260;28;20052;-73
2022/01/28 11:34:30;;;;;;;0.93;0.45;;;9.10;64.50;;;;;;4968031;28;20725;-75
2022/01/28 11:37:26;;;;;;;1.10;0.43;;;9.20;62.10;;;;;;4959344;28;20113;-76
2022/01/28 11:39:52;;;;;;;1.27;0.50;;;9.30;61.40;;;;;;4964263;28;20034;-74
2022/01/28 11:42:29;;;;;;;1.70;0.60;;;9.50;61.40;;;;;;4969593;28;20014;-77
2022/01/28 11:44:59;;;;;;;0.98;0.50;;;9.50;60.50;;;;;;4962072;28;20030;-73
2022/01/28 11:47:33;;;;;;;1.58;0.40;;;9.50;60.00;;;;;;4967540;28;20026;-70
2022/01/28 11:50:08;;;;;;;2.10;0.60;;;9.40;60.10;;;;;;4960962;28;20023;-73
2022/01/28 11:52:40;;;;;;;3.28;0.80;;;9.40;60.50;;;;;;4961358;28;20094;-71
2022/01/28 11:55:15;;;;;;;2.97;0.63;;;9.30;61.00;;;;;;4966842;28;20023;-71
2022/01/28 11:58:02;;;;;;;1.25;0.40;;;9.20;58.50;;;;;;4961780;28;20030;-70
2022/01/28 12:00:33;;;;;;;1.50;0.40;;;9.10;58.60;;;;;;4965633;28;20920;-70
2022/01/28 12:03:00;;;;;;;1.08;0.50;;;9.00;57.70;;;;;;4967818;28;20077;-73
2022/01/28 12:05:26;;;;;;;;;;;9.10;58.20;;;;;;4967990;28;20054;-69
2022/01/28 12:07:54;;;;;;;1.08;0.70;;;9.00;58.00;;;;;;4968573;28;20013;-73
2022/01/28 12:10:20;;;;;;;0.98;0.60;;;8.60;58.10;;;;;;4961126;28;20133;-79
2022/01/28 12:12:57;;;;;;;1.90;0.60;;;8.30;59.50;;;;;;4964914;28;20539;-78
2022/01/28 12:15:25;;;;;;;3.30;0.63;;;8.00;61.20;;;;;;4960116;28;20030;-78
2022/01/28 12:18:05;;;;;;;3.22;0.70;;;7.80;62.10;;;;;;4967712;28;20396;-82
2022/01/28 12:20:48;;;;;;;1.00;0.60;;;7.70;74.60;;;;;;4993320;28;20026;-83
2022/01/28 12:23:14;;;;;;;2.83;0.73;;;7.90;69.20;;;;;;4967613;28;20777;-83
2022/01/28 12:25:46;;;;;;;6.50;1.48;;;7.90;68.30;;;;;;4967667;28;20097;-80
2022/01/28 12:28:21;;;;;;;0.77;0.65;;;7.90;69.90;;;;;;4965283;28;20476;-77
2022/01/28 12:30:56;;;;;;;1.20;0.50;;;8.00;71.00;;;;;;4962502;28;20034;-72
2022/01/28 12:33:24;;;;;;;5.80;0.60;;;7.80;68.40;;;;;;4960630;28;20659;-75
2022/01/28 12:35:52;;;;;;;1.58;0.55;;;7.50;71.00;;;;;;4964109;28;20026;-73
2022/01/28 12:38:22;;;;;;;0.52;0.50;;;7.20;73.40;;;;;;4969594;28;20070;-71
2022/01/28 12:40:52;;;;;;;2.15;0.73;;;7.10;75.00;;;;;;4969630;28;20034;-72
2022/01/28 12:43:21;;;;;;;0.77;0.60;;;7.00;75.50;;;;;;4971396;28;20082;-71
2022/01/28 12:46:08;;;;;;;0.57;0.50;;;6.80;76.10;;;;;;4961105;28;20018;-74
2022/01/28 12:48:34;;;;;;;5.10;0.47;;;6.80;76.60;;;;;;4962141;28;20026;-71
2022/01/28 12:51:02;;;;;;;2.17;0.68;;;6.80;76.80;;;;;;4964008;28;20030;-76
2022/01/28 12:53:32;;;;;;;2.15;0.70;;;6.70;77.40;;;;;;4964300;28;20045;-71
2022/01/28 12:55:59;;;;;;;1.73;0.90;;;6.70;76.80;;;;;;4964199;28;20039;-75
2022/01/28 12:58:54;;;;;;;3.85;1.25;;;6.70;77.70;;;;;;4963563;28;20177;-72
2022/01/28 13:01:20;;;;;;;1.13;0.57;;;6.60;77.60;;;;;;4951017;28;20046;-70
2022/01/28 13:03:56;;;;;;;3.28;0.93;;;6.60;77.80;;;;;;4963145;28;20041;-70
2022/01/28 13:09:13;;;;;;;2.25;0.47;;;6.70;78.20;;;;;;4964167;28;20554;-75
2022/01/28 13:11:42;;;;;;;1.77;0.68;;;6.70;77.20;;;;;;4959831;28;20084;-71
2022/01/28 13:14:09;;;;;;;3.42;1.13;;;6.70;77.00;;;;;;4964498;28;20054;-75
2022/01/28 13:16:41;;;;;;;2.72;0.80;;;6.70;75.90;;;;;;4958924;28;20027;-73
2022/01/28 13:19:09;;;;;;;1.77;0.63;;;6.60;75.20;;;;;;4965317;28;20117;-72
2022/01/28 13:21:35;;;;;;;3.58;0.57;;;6.60;74.70;;;;;;4959661;28;20588;-71
2022/01/28 13:24:17;;;;;;;2.33;0.70;;;6.60;75.20;;;;;;4963463;28;20046;-71
2022/01/28 13:26:55;;;;;;;1.75;0.75;;;6.60;75.20;;;;;;4960213;28;20018;-72
2022/01/28 13:29:46;;;;;;;2.58;0.90;;;6.60;75.10;;;;;;4965875;28;20046;-71
2022/01/28 13:32:29;;;;;;;4.53;0.90;;;6.70;75.50;;;;;;4968859;28;20362;-79
2022/01/28 13:34:58;;;;;;;2.28;0.77;;;6.90;90.30;;;;;;4959339;28;20419;-70
2022/01/28 13:37:38;;;;;;;2.95;0.93;;;7.10;76.10;;;;;;4957381;28;20118;-70
2022/01/28 13:40:18;;;;;;;1.23;0.93;;;7.00;74.60;;;;;;4963640;28;20435;-75
2022/01/28 13:42:58;;;;;;;2.13;0.70;;;7.00;74.80;;;;;;4960109;28;20090;-74
2022/01/28 13:45:37;;;;;;;1.63;0.68;;;6.90;75.00;;;;;;4966538;28;20027;-71
2022/01/28 13:48:07;;;;;;;2.00;1.08;;;6.80;75.50;;;;;;4964067;28;20033;-71
2022/01/28 13:50:39;;;;;;;2.80;0.80;;;6.80;76.10;;;;;;4962452;28;20369;-71
2022/01/28 13:56:03;;;;;;;1.35;0.70;;;6.60;76.10;;;;;;4961523;28;20061;-71
2022/01/28 13:58:42;;;;;;;3.08;0.70;;;6.60;76.60;;;;;;4965047;28;20022;-71
2022/01/28 14:01:09;;;;;;;2.08;1.08;;;6.50;77.20;;;;;;4962914;28;20539;-73
2022/01/28 14:03:47;;;;;;;1.02;0.50;;;6.50;77.10;;;;;;4962689;28;20369;-71
2022/01/28 14:06:18;;;;;;;1.73;0.65;;;6.40;78.00;;;;;;4960301;28;20729;-71
2022/01/28 14:08:52;;;;;;;2.35;0.80;;;6.40;79.40;;;;;;4964628;28;20074;-72
2022/01/28 14:11:32;;;;;;;4.50;0.70;;;6.30;80.10;;;;;;4961241;28;20511;-74
2022/01/28 14:14:22;;;;;;;1.70;0.57;;;6.20;81.10;;;;;;4964834;28;20035;-72
2022/01/28 14:16:55;;;;;;;4.68;1.17;;;6.20;81.20;;;;;;4962467;28;20022;-70
2022/01/28 14:19:22;;;;;;;3.13;0.80;;;6.20;81.20;;;;;;4965391;28;20443;-70
2022/01/28 14:21:48;;;;;;;1.65;0.70;;;6.20;81.40;;;;;;4959615;28;20618;-71
2022/01/28 14:24:17;;;;;;;0.77;0.52;;;6.20;81.10;;;;;;4967674;28;20756;-71
2022/01/28 14:26:44;;;;;;;1.65;0.50;;;6.10;81.40;;;;;;4960414;28;20093;-73
2022/01/28 14:29:35;;;;;;;1.05;0.47;;;6.10;81.20;;;;;;4962310;28;20468;-69
2022/01/28 14:32:03;;;;;;;2.78;0.77;;;6.10;81.10;;;;;;4963323;28;20030;-70
2022/01/28 14:34:29;;;;;;;1.02;0.50;;;6.00;81.20;;;;;;4961826;28;20391;-70
2022/01/28 14:36:56;;;;;;;3.60;0.70;;;6.00;81.40;;;;;;4958315;28;20035;-71
2022/01/28 14:39:22;;;;;;;1.95;0.82;;;5.90;81.70;;;;;;4962065;28;20030;-70
2022/01/28 14:41:50;;;;;;;2.20;0.90;;;6.00;82.00;;;;;;4960246;28;20037;-74
2022/01/28 14:44:16;;;;;;;3.88;0.80;;;5.90;82.30;;;;;;4955673;28;20332;-71
2022/01/28 14:46:43;;;;;;;1.67;0.60;;;6.00;82.50;;;;;;4967370;28;20603;-72
2022/01/28 14:49:09;;;;;;;1.98;0.82;;;6.00;82.70;;;;;;4962138;28;20097;-71